createdAt,value
2018-07-16T00:01:49.988Z,99.90
2018-07-16T00:04:19.803Z,99.90
2018-07-16T00:06:53.924Z,99.90
2018-07-16T00:09:24.720Z,99.90
2018-07-16T00:11:54.580Z,99.90
2018-07-16T00:14:24.504Z,99.90
2018-07-16T00:16:53.336Z,99.90
2018-07-16T00:19:24.132Z,99.90
2018-07-16T00:21:54.980Z,99.90
2018-07-16T00:24:25.887Z,99.90
2018-07-16T00:26:55.944Z,99.90
2018-07-16T00:29:24.763Z,99.90
2018-07-16T00:31:58.448Z,99.90
2018-07-16T00:34:28.280Z,99.90
2018-07-16T00:37:02.087Z,99.90
2018-07-16T00:39:31.095Z,99.90
2018-07-16T00:42:00.052Z,99.90
2018-07-16T00:44:31.008Z,99.90
2018-07-16T00:46:59.923Z,99.90
2018-07-16T00:49:28.851Z,99.90
2018-07-16T00:52:01.985Z,99.90
2018-07-16T00:54:32.859Z,99.90
2018-07-16T00:57:01.776Z,99.90
2018-07-16T00:59:31.724Z,99.90
2018-07-16T01:02:06.459Z,99.90
2018-07-16T01:04:35.467Z,99.90
2018-07-16T01:07:05.461Z,99.90
2018-07-16T01:09:35.419Z,99.90
2018-07-16T01:12:06.303Z,99.90
2018-07-16T01:14:35.096Z,99.90
2018-07-16T01:17:03.916Z,99.90
2018-07-16T01:19:33.755Z,99.90
2018-07-16T01:22:02.659Z,99.90
2018-07-16T01:24:32.595Z,99.90
2018-07-16T01:27:01.444Z,99.90
2018-07-16T01:29:31.347Z,99.90
2018-07-16T01:32:01.323Z,99.90
2018-07-16T01:34:35.903Z,99.90
2018-07-16T01:37:04.747Z,99.90
2018-07-16T01:39:33.631Z,99.90
2018-07-16T01:42:03.467Z,99.90
2018-07-16T01:44:33.414Z,99.90
2018-07-16T01:47:02.359Z,99.90
2018-07-16T01:49:48.066Z,99.90
2018-07-16T01:52:25.309Z,99.90
2018-07-16T01:54:57.711Z,99.90
2018-07-16T01:57:26.579Z,99.90
2018-07-16T01:59:55.498Z,99.90
2018-07-16T02:02:30.386Z,99.90
2018-07-16T02:04:59.251Z,99.90
2018-07-16T02:07:30.174Z,99.90
2018-07-16T02:10:06.210Z,99.90
2018-07-16T02:12:49.359Z,99.90
2018-07-16T02:15:21.438Z,99.90
2018-07-16T02:17:56.835Z,99.90
2018-07-16T02:20:29.207Z,99.90
2018-07-16T02:23:02.123Z,99.90
2018-07-16T02:25:37.031Z,99.90
2018-07-16T02:28:07.103Z,99.90
2018-07-16T02:30:36.151Z,99.90
2018-07-16T02:33:06.279Z,99.90
2018-07-16T02:35:37.115Z,99.90
2018-07-16T02:38:09.142Z,99.90
2018-07-16T02:40:38.931Z,99.90
2018-07-16T02:43:07.735Z,99.90
2018-07-16T02:45:38.617Z,99.90
2018-07-16T02:48:07.507Z,99.90
2018-07-16T02:50:37.486Z,99.90
2018-07-16T02:53:06.438Z,99.90
2018-07-16T02:55:36.259Z,99.90
2018-07-16T02:58:10.532Z,99.90
2018-07-16T03:01:02.437Z,99.90
2018-07-16T03:03:41.637Z,99.90
2018-07-16T03:06:14.931Z,99.90
2018-07-16T03:08:44.803Z,99.90
2018-07-16T03:13:42.299Z,99.90
2018-07-16T03:16:11.171Z,99.90
2018-07-16T03:18:41.055Z,99.90
2018-07-16T03:21:10.815Z,99.90
2018-07-16T03:23:41.740Z,99.90
2018-07-16T03:26:10.613Z,99.90
2018-07-16T03:28:41.443Z,99.90
2018-07-16T03:31:10.495Z,99.90
2018-07-16T03:33:45.040Z,99.90
2018-07-16T03:36:20.439Z,99.90
2018-07-16T03:38:50.751Z,99.90
2018-07-16T03:41:25.742Z,99.90
2018-07-16T03:43:56.923Z,99.90
2018-07-16T03:46:27.175Z,99.90
2018-07-16T03:48:56.351Z,99.90
2018-07-16T03:51:25.251Z,99.90
2018-07-16T03:53:54.234Z,99.90
2018-07-16T03:56:23.335Z,99.90
2018-07-16T03:59:04.882Z,99.90
2018-07-16T04:01:37.801Z,99.90
2018-07-16T04:04:06.874Z,99.90
2018-07-16T04:06:39.023Z,99.90
2018-07-16T04:09:13.895Z,99.90
2018-07-16T04:11:43.943Z,99.90
2018-07-16T04:16:42.991Z,99.90
2018-07-16T04:19:18.031Z,99.90
2018-07-16T04:21:54.865Z,99.90
2018-07-16T04:24:24.143Z,99.90
2018-07-16T04:26:53.355Z,99.90
2018-07-16T04:29:22.391Z,99.90
2018-07-16T04:31:52.462Z,99.90
2018-07-16T04:34:26.804Z,99.90
2018-07-16T04:36:56.583Z,99.90
2018-07-16T04:39:39.541Z,99.90
2018-07-16T04:42:21.010Z,99.90
2018-07-16T04:44:54.619Z,99.90
2018-07-16T04:47:28.518Z,99.90
2018-07-16T04:49:57.277Z,99.90
2018-07-16T04:52:27.104Z,99.90
2018-07-16T04:55:03.570Z,99.90
2018-07-16T04:57:42.426Z,99.90
2018-07-16T05:00:15.678Z,99.90
2018-07-16T05:02:56.403Z,99.90
2018-07-16T05:05:28.306Z,99.90
2018-07-16T05:07:57.082Z,99.90
2018-07-16T05:10:26.094Z,99.90
2018-07-16T05:12:54.978Z,99.90
2018-07-16T05:15:29.750Z,99.90
2018-07-16T05:17:58.733Z,99.90
2018-07-16T05:20:27.734Z,99.90
2018-07-16T05:22:56.783Z,99.90
2018-07-16T05:25:25.706Z,99.90
2018-07-16T05:27:56.751Z,99.90
2018-07-16T05:30:30.534Z,99.90
2018-07-16T05:32:59.418Z,99.90
2018-07-16T05:35:32.023Z,99.90
2018-07-16T05:38:02.053Z,99.90
2018-07-16T05:40:31.042Z,99.90
2018-07-16T05:43:07.003Z,99.90
2018-07-16T05:45:36.302Z,99.90
2018-07-16T05:48:05.918Z,99.90
2018-07-16T05:50:34.746Z,99.90
2018-07-16T05:53:04.818Z,99.90
2018-07-16T05:55:36.709Z,99.90
2018-07-16T05:58:08.661Z,99.90
2018-07-16T06:00:53.502Z,99.90
2018-07-16T06:03:22.402Z,99.90
2018-07-16T06:05:55.218Z,99.90
2018-07-16T06:08:29.770Z,99.90
2018-07-16T06:10:59.676Z,95.60
2018-07-16T06:13:31.602Z,95.70
2018-07-16T06:16:00.518Z,89.00
2018-07-16T06:18:43.362Z,83.20
2018-07-16T06:21:13.170Z,80.50
2018-07-16T06:23:45.016Z,76.50
2018-07-16T06:26:14.814Z,74.10
2018-07-16T06:28:47.107Z,72.90
2018-07-16T06:31:17.327Z,73.40
2018-07-16T06:33:47.138Z,73.40
2018-07-16T06:36:16.931Z,74.10
2018-07-16T06:41:36.280Z,76.20
2018-07-16T06:44:04.602Z,74.60
2018-07-16T06:49:04.027Z,72.90
2018-07-16T06:51:43.042Z,73.10
2018-07-16T06:54:19.736Z,72.10
2018-07-16T06:56:52.071Z,68.50
2018-07-16T06:59:34.731Z,66.70
2018-07-16T07:02:09.301Z,66.20
2018-07-16T07:04:44.083Z,67.20
2018-07-16T07:07:14.795Z,64.90
2018-07-16T07:09:44.658Z,65.70
2018-07-16T07:12:18.054Z,67.60
2018-07-16T07:14:56.318Z,68.30
2018-07-16T07:17:31.355Z,67.70
2018-07-16T07:20:00.123Z,67.50
2018-07-16T07:22:40.827Z,67.10
2018-07-16T07:25:10.635Z,67.20
2018-07-16T07:27:40.427Z,66.20
2018-07-16T07:30:15.599Z,65.40
2018-07-16T07:32:46.353Z,64.60
2018-07-16T07:35:16.281Z,63.30
2018-07-16T07:37:45.940Z,61.80
2018-07-16T07:40:15.075Z,58.80
2018-07-16T07:42:56.119Z,58.90
2018-07-16T07:45:28.171Z,57.10
2018-07-16T07:47:56.956Z,56.80
2018-07-16T07:50:25.850Z,56.20
2018-07-16T07:52:54.763Z,55.60
2018-07-16T07:55:36.069Z,55.20
2018-07-16T07:58:05.902Z,54.80
2018-07-16T08:00:34.639Z,55.20
2018-07-16T08:03:09.814Z,55.60
2018-07-16T08:05:51.322Z,56.20
2018-07-16T08:08:26.659Z,56.20
2018-07-16T08:10:55.410Z,56.00
2018-07-16T08:13:25.207Z,55.70
2018-07-16T08:15:54.091Z,56.40
2018-07-16T08:18:22.802Z,55.80
2018-07-16T08:20:57.650Z,54.60
2018-07-16T08:23:29.610Z,53.90
2018-07-16T08:25:58.418Z,54.20
2018-07-16T08:28:30.235Z,53.30
2018-07-16T08:30:59.999Z,52.40
2018-07-16T08:33:28.848Z,50.90
2018-07-16T08:35:57.582Z,49.90
2018-07-16T08:38:26.456Z,49.50
2018-07-16T08:40:56.223Z,48.30
2018-07-16T08:43:31.819Z,47.40
2018-07-16T08:46:08.643Z,46.20
2018-07-16T08:48:50.830Z,45.30
2018-07-16T08:51:38.838Z,44.50
2018-07-16T08:54:07.677Z,43.20
2018-07-16T08:56:55.662Z,42.80
2018-07-16T08:59:24.511Z,41.30
2018-07-16T09:01:58.203Z,39.60
2018-07-16T09:04:28.930Z,41.00
2018-07-16T09:06:57.752Z,42.30
2018-07-16T09:09:26.539Z,43.10
2018-07-16T09:11:58.510Z,43.20
2018-07-16T09:14:39.134Z,43.10
2018-07-16T09:17:08.885Z,43.30
2018-07-16T09:19:41.234Z,41.40
2018-07-16T09:22:24.369Z,40.80
2018-07-16T09:24:57.426Z,40.70
2018-07-16T09:27:27.246Z,41.80
2018-07-16T09:29:57.062Z,40.60
2018-07-16T09:32:31.398Z,39.00
2018-07-16T09:35:01.082Z,37.70
2018-07-16T09:37:30.825Z,37.00
2018-07-16T09:40:06.003Z,36.60
2018-07-16T09:42:40.925Z,36.30
2018-07-16T09:45:09.766Z,35.90
2018-07-16T09:47:38.563Z,34.50
2018-07-16T09:50:07.329Z,33.20
2018-07-16T09:52:37.137Z,34.20
2018-07-16T09:55:12.598Z,35.60
2018-07-16T09:57:41.405Z,36.80
2018-07-16T10:00:14.406Z,38.10
2018-07-16T10:02:47.471Z,40.40
2018-07-16T10:05:17.357Z,42.90
2018-07-16T10:07:57.997Z,44.00
2018-07-16T10:13:28.575Z,44.30
2018-07-16T10:15:58.845Z,45.10
2018-07-16T10:18:40.480Z,46.30
2018-07-16T10:24:02.557Z,47.10
2018-07-16T10:26:46.142Z,47.60
2018-07-16T10:29:20.898Z,48.00
2018-07-16T10:31:54.942Z,49.10
2018-07-16T10:34:24.902Z,49.30
2018-07-16T10:37:14.862Z,51.20
2018-07-16T10:39:43.702Z,52.00
2018-07-16T10:42:32.402Z,55.00
2018-07-16T10:45:01.358Z,56.80
2018-07-16T10:47:30.202Z,57.50
2018-07-16T10:50:04.038Z,58.80
2018-07-16T10:52:50.511Z,60.30
2018-07-16T10:55:21.545Z,61.70
2018-07-16T10:57:57.361Z,61.80
2018-07-16T11:00:26.733Z,62.60
2018-07-16T11:03:00.552Z,65.30
2018-07-16T11:05:29.473Z,72.90
2018-07-16T11:07:58.102Z,82.00
2018-07-16T11:10:26.933Z,93.30
2018-07-16T11:12:55.738Z,99.90
2018-07-16T11:15:24.502Z,99.90
2018-07-16T11:17:53.286Z,99.90
2018-07-16T11:20:22.161Z,99.90
2018-07-16T11:22:50.942Z,99.90
2018-07-16T11:25:19.762Z,99.90
2018-07-16T11:27:48.566Z,99.90
2018-07-16T11:30:21.509Z,99.90
2018-07-16T11:32:50.306Z,99.90
2018-07-16T11:35:20.139Z,99.90
2018-07-16T11:37:48.858Z,99.90
2018-07-16T11:40:23.589Z,99.90
2018-07-16T11:42:56.018Z,99.90
2018-07-16T11:45:25.782Z,99.90
2018-07-16T11:47:54.617Z,99.90
2018-07-16T11:50:24.450Z,99.90
2018-07-16T11:52:58.065Z,99.90
2018-07-16T11:55:26.977Z,99.90
2018-07-16T11:57:56.821Z,99.90
2018-07-16T12:00:27.722Z,99.90
2018-07-16T12:02:56.590Z,99.90
2018-07-16T12:05:25.511Z,99.90
2018-07-16T12:07:55.426Z,99.90
2018-07-16T12:10:24.303Z,99.90
2018-07-16T12:12:53.251Z,99.90
2018-07-16T12:15:22.101Z,99.90
2018-07-16T12:17:52.002Z,99.90
2018-07-16T12:20:20.894Z,99.90
2018-07-16T12:22:51.017Z,99.90
2018-07-16T12:25:20.038Z,99.90
2018-07-16T12:27:48.859Z,99.90
2018-07-16T12:30:17.697Z,99.90
2018-07-16T12:32:50.260Z,99.90
2018-07-16T12:35:19.113Z,99.90
2018-07-16T12:37:51.790Z,99.90
2018-07-16T12:40:21.614Z,99.90
2018-07-16T12:42:50.505Z,99.90
2018-07-16T12:45:19.345Z,99.90
2018-07-16T12:47:53.914Z,99.90
2018-07-16T12:50:22.793Z,99.90
2018-07-16T12:52:51.717Z,99.90
2018-07-16T12:55:33.138Z,99.90
2018-07-16T13:00:35.574Z,99.90
2018-07-16T13:05:34.281Z,99.90
2018-07-16T13:11:17.633Z,99.90
2018-07-16T13:13:50.321Z,99.90
2018-07-16T13:18:59.993Z,99.90
2018-07-16T13:21:30.303Z,99.90
2018-07-16T13:24:01.181Z,99.90
2018-07-16T13:26:33.249Z,99.90
2018-07-16T13:29:05.369Z,99.90
2018-07-16T13:31:35.120Z,99.90
2018-07-16T13:34:05.893Z,99.90
2018-07-16T13:36:40.916Z,99.90
2018-07-16T13:39:12.313Z,99.90
2018-07-16T13:41:42.177Z,99.90
2018-07-16T13:44:11.729Z,99.90
2018-07-16T13:46:42.285Z,96.90
2018-07-16T13:49:11.672Z,93.40
2018-07-16T13:51:44.733Z,90.80
2018-07-16T13:54:14.353Z,90.90
2018-07-16T13:56:47.735Z,90.10
2018-07-16T13:59:16.905Z,84.40
2018-07-16T14:01:47.044Z,81.40
2018-07-16T14:04:25.429Z,73.40
2018-07-16T14:09:27.876Z,56.20
2018-07-16T14:11:56.689Z,52.00
2018-07-16T14:14:25.503Z,46.90
2018-07-16T14:16:58.769Z,47.90
2018-07-16T14:19:29.593Z,48.30
2018-07-16T14:22:00.245Z,50.40
2018-07-16T14:24:32.170Z,48.30
2018-07-16T14:27:03.958Z,46.40
2018-07-16T14:29:46.762Z,41.20
2018-07-16T14:32:15.497Z,40.00
2018-07-16T14:34:44.241Z,37.20
2018-07-16T14:37:32.214Z,35.80
2018-07-16T14:40:01.676Z,34.40
2018-07-16T14:44:59.205Z,31.50
2018-07-16T14:47:28.219Z,33.00
2018-07-16T14:49:58.946Z,31.30
2018-07-16T14:52:27.663Z,30.90
2018-07-16T14:54:56.453Z,30.80
2018-07-16T14:57:36.549Z,27.70
2018-07-16T15:00:05.421Z,28.40
2018-07-16T15:02:41.805Z,28.20
2018-07-16T15:05:10.641Z,29.70
2018-07-16T15:07:45.561Z,29.90
2018-07-16T15:10:15.305Z,30.10
2018-07-16T15:12:46.163Z,29.70
2018-07-16T15:15:15.118Z,32.20
2018-07-16T15:17:44.986Z,33.10
2018-07-16T15:20:20.395Z,34.50
2018-07-16T15:22:51.125Z,35.60
2018-07-16T15:25:21.913Z,36.60
2018-07-16T15:27:52.103Z,38.10
2018-07-16T15:30:31.181Z,38.20
2018-07-16T15:33:00.941Z,39.00
2018-07-16T15:35:35.703Z,39.70
2018-07-16T15:38:05.640Z,40.00
2018-07-16T15:40:35.445Z,37.40
2018-07-16T15:43:05.345Z,36.70
2018-07-16T15:45:53.584Z,35.10
2018-07-16T15:48:23.576Z,37.30
2018-07-16T15:50:52.308Z,39.30
2018-07-16T15:53:35.857Z,38.70
2018-07-16T15:56:10.992Z,39.60
2018-07-16T15:58:39.799Z,40.70
2018-07-16T16:01:09.680Z,43.60
2018-07-16T16:03:38.456Z,45.00
2018-07-16T16:06:07.284Z,46.20
2018-07-16T16:08:36.095Z,47.30
2018-07-16T16:11:04.967Z,48.70
2018-07-16T16:16:02.369Z,45.40
2018-07-16T16:18:32.119Z,44.00
2018-07-16T16:21:00.903Z,43.50
2018-07-16T16:23:31.751Z,42.80
2018-07-16T16:26:00.679Z,42.80
2018-07-16T16:28:30.451Z,43.70
2018-07-16T16:31:04.471Z,44.00
2018-07-16T16:33:38.483Z,43.70
2018-07-16T16:38:43.979Z,44.60
2018-07-16T16:41:16.448Z,46.90
2018-07-16T16:43:46.555Z,47.20
2018-07-16T16:46:16.266Z,48.30
2018-07-16T16:48:59.830Z,51.80
2018-07-16T16:51:30.601Z,53.30
2018-07-16T16:54:00.396Z,55.20
2018-07-16T16:56:29.235Z,56.10
2018-07-16T16:58:59.976Z,57.90
2018-07-16T17:01:28.884Z,58.90
2018-07-16T17:03:59.621Z,60.10
2018-07-16T17:06:33.488Z,61.10
2018-07-16T17:09:03.460Z,61.80
2018-07-16T17:11:37.084Z,59.20
2018-07-16T17:14:10.680Z,59.40
2018-07-16T17:16:44.762Z,59.00
2018-07-16T17:19:13.512Z,59.80
2018-07-16T17:21:42.292Z,60.30
2018-07-16T17:24:12.073Z,59.20
2018-07-16T17:26:44.256Z,58.50
2018-07-16T17:29:13.996Z,57.30
2018-07-16T17:31:42.849Z,54.90
2018-07-16T17:34:11.628Z,51.90
2018-07-16T17:36:40.425Z,51.90
2018-07-16T17:39:26.044Z,51.00
2018-07-16T17:41:56.844Z,50.60
2018-07-16T17:44:30.684Z,50.70
2018-07-16T17:46:59.636Z,51.00
2018-07-16T17:49:28.476Z,50.70
2018-07-16T17:52:00.444Z,50.70
2018-07-16T17:54:36.712Z,51.00
2018-07-16T17:57:09.212Z,51.40
2018-07-16T17:59:38.037Z,52.70
2018-07-16T18:02:07.824Z,53.20
2018-07-16T18:04:39.700Z,53.60
2018-07-16T18:07:09.496Z,54.70
2018-07-16T18:09:38.284Z,56.10
2018-07-16T18:12:09.108Z,57.20
2018-07-16T18:14:49.624Z,58.10
2018-07-16T18:17:20.352Z,59.10
2018-07-16T18:19:49.244Z,62.20
2018-07-16T18:22:18.460Z,63.90
2018-07-16T18:24:53.160Z,66.90
2018-07-16T18:27:27.904Z,68.20
2018-07-16T18:29:56.804Z,75.30
2018-07-16T18:32:25.541Z,80.50
2018-07-16T18:34:59.172Z,90.80
2018-07-16T18:40:38.034Z,95.70
2018-07-16T18:43:22.732Z,98.50
2018-07-16T18:46:00.922Z,99.40
2018-07-16T18:48:31.717Z,99.90
2018-07-16T18:51:00.448Z,99.90
2018-07-16T18:53:31.328Z,99.90
2018-07-16T18:56:05.740Z,99.90
2018-07-16T18:58:41.832Z,99.90
2018-07-16T19:01:11.676Z,99.90
2018-07-16T19:03:41.804Z,99.90
2018-07-16T19:06:13.153Z,99.90
2018-07-16T19:08:47.756Z,99.90
2018-07-16T19:11:21.516Z,99.90
2018-07-16T19:13:53.800Z,99.90
2018-07-16T19:18:52.068Z,99.90
2018-07-16T19:21:28.026Z,99.90
2018-07-16T19:24:09.328Z,99.90
2018-07-16T19:26:52.988Z,99.90
2018-07-16T19:29:28.416Z,99.90
2018-07-16T19:32:03.154Z,99.90
2018-07-16T19:34:36.484Z,99.90
2018-07-16T19:37:14.895Z,99.90
2018-07-16T19:39:56.189Z,99.90
2018-07-16T19:42:29.377Z,99.90
2018-07-16T19:44:58.351Z,99.90
2018-07-16T19:47:31.671Z,99.90
2018-07-16T19:50:06.511Z,99.90
2018-07-16T19:52:40.276Z,99.90
2018-07-16T19:55:13.220Z,99.90
2018-07-16T19:57:47.027Z,99.90
2018-07-16T20:00:17.801Z,99.90
2018-07-16T20:02:51.713Z,99.90
2018-07-16T20:10:32.205Z,99.90
2018-07-16T20:13:06.795Z,99.90
2018-07-16T20:15:36.723Z,99.90
2018-07-16T20:18:05.701Z,99.90
2018-07-16T20:20:52.732Z,99.90
2018-07-16T20:23:26.705Z,99.90
2018-07-16T20:28:26.316Z,99.90
2018-07-16T20:30:55.288Z,99.90
2018-07-16T20:33:27.204Z,99.90
2018-07-16T20:35:56.527Z,99.90
2018-07-16T20:38:25.584Z,99.90
2018-07-16T20:40:54.416Z,99.90
2018-07-16T20:43:23.264Z,99.90
2018-07-16T20:45:52.221Z,99.90
2018-07-16T20:48:20.972Z,99.90
2018-07-16T20:53:24.588Z,99.90
2018-07-16T20:55:53.872Z,99.90
2018-07-16T20:58:25.764Z,99.90
2018-07-16T21:00:56.572Z,99.90
2018-07-16T21:03:30.032Z,99.90
2018-07-16T21:06:01.733Z,99.90
2018-07-16T21:08:30.608Z,99.90
2018-07-16T21:10:59.551Z,99.90
2018-07-16T21:13:29.527Z,99.90
2018-07-16T21:16:00.239Z,99.90
2018-07-16T21:18:31.108Z,99.90
2018-07-16T21:21:01.031Z,99.90
2018-07-16T21:23:29.856Z,99.90
2018-07-16T21:26:09.019Z,99.90
2018-07-16T21:28:38.992Z,99.90
2018-07-16T21:31:12.344Z,99.90
2018-07-16T21:33:41.216Z,99.90
2018-07-16T21:36:10.190Z,99.90
2018-07-16T21:41:16.311Z,99.90
2018-07-16T21:43:51.439Z,99.90
2018-07-16T21:46:21.465Z,99.90
2018-07-16T21:48:55.119Z,99.90
2018-07-16T21:51:31.343Z,99.90
2018-07-16T21:54:00.847Z,99.90
2018-07-16T21:56:30.203Z,99.90
2018-07-16T21:59:00.064Z,99.90
2018-07-16T22:01:37.368Z,99.90
2018-07-16T22:04:07.319Z,99.90
2018-07-16T22:06:38.219Z,99.90
2018-07-16T22:09:07.903Z,99.90
2018-07-16T22:11:38.875Z,99.90
2018-07-16T22:14:12.043Z,99.90
2018-07-16T22:16:40.899Z,99.90
2018-07-16T22:19:11.751Z,99.90
2018-07-16T22:21:40.599Z,99.90
2018-07-16T22:24:09.495Z,99.90
2018-07-16T22:26:39.311Z,99.90
2018-07-16T22:29:09.135Z,99.90
2018-07-16T22:31:50.016Z,99.90
2018-07-16T22:34:23.023Z,99.90
2018-07-16T22:36:53.999Z,99.90
2018-07-16T22:39:26.615Z,99.90
2018-07-16T22:42:03.819Z,99.90
2018-07-16T22:44:41.378Z,99.90
2018-07-16T22:47:13.851Z,99.90
2018-07-16T22:49:48.495Z,99.90
2018-07-16T22:52:19.319Z,99.90
2018-07-16T22:54:56.407Z,99.90
2018-07-16T22:57:25.571Z,99.90
2018-07-16T23:02:28.559Z,99.90
2018-07-16T23:07:29.524Z,99.90
2018-07-16T23:09:58.343Z,99.90
2018-07-16T23:12:29.211Z,99.90
2018-07-16T23:15:12.219Z,99.90
2018-07-16T23:17:48.835Z,99.90
2018-07-16T23:20:17.611Z,99.90
2018-07-16T23:25:25.473Z,99.90
2018-07-16T23:27:58.235Z,99.90
2018-07-16T23:30:27.131Z,99.90
2018-07-16T23:32:56.028Z,99.90
2018-07-16T23:35:25.859Z,99.90
2018-07-16T23:37:54.722Z,99.90
2018-07-16T23:40:23.515Z,99.90
2018-07-16T23:42:54.363Z,99.90
2018-07-16T23:45:23.303Z,99.90
2018-07-16T23:47:56.435Z,99.90
2018-07-16T23:50:26.312Z,99.90
2018-07-16T23:52:57.095Z,99.90
2018-07-16T23:58:10.507Z,99.90
